Time;durP1;ratioP1;P1;durP2;ratioP2;P2;SDS_P1;SDS_P2;PMS_P1;PMS_P2;Temp;Humidity;BMP_temperature;BMP_pressure;BME280_temperature;BME280_humidity;BME280_pressure;Samples;Min_cycle;Max_cycle;Signal;HPM_P1;HPM_P2
2023/12/29 00:01:13;;;;;;;35.72;16.58;;;;;;;7.71;80.05;100625.59;5093332;28;20035;-82
2023/12/29 00:03:39;;;;;;;25.17;13.43;;;;;;;7.70;79.94;100626.47;5093541;28;20016;-82
2023/12/29 00:06:04;;;;;;;24.33;12.43;;;;;;;7.68;79.62;100630.81;5093510;28;20496;-82
2023/12/29 00:08:31;;;;;;;24.10;12.25;;;;;;;7.66;79.75;100637.78;5093179;28;20161;-82
2023/12/29 00:10:56;;;;;;;23.08;12.45;;;;;;;7.65;79.59;100630.78;5093167;28;20089;-84
2023/12/29 00:13:23;;;;;;;25.23;12.10;;;;;;;7.62;79.61;100635.97;5092977;28;20464;-83
2023/12/29 00:15:53;;;;;;;23.77;12.15;;;;;;;7.57;79.61;100637.63;5074549;28;20020;-83
2023/12/29 00:18:19;;;;;;;24.83;12.60;;;;;;;7.51;79.68;100625.34;5093353;28;20245;-83
2023/12/29 00:20:44;;;;;;;24.67;14.63;;;;;;;7.43;79.94;100630.47;5099703;28;20110;-82
2023/12/29 00:23:10;;;;;;;29.27;13.80;;;;;;;7.35;80.43;100629.44;5113316;28;20035;-83
2023/12/29 00:25:36;;;;;;;26.33;14.10;;;;;;;7.31;80.22;100619.78;5105707;28;20112;-83
2023/12/29 00:28:02;;;;;;;24.50;13.20;;;;;;;7.27;80.46;100625.84;5092497;28;20048;-84
2023/12/29 00:30:29;;;;;;;25.17;13.57;;;;;;;7.25;80.72;100619.69;5074037;28;20105;-82
2023/12/29 00:32:55;;;;;;;24.60;12.60;;;;;;;7.24;80.20;100618.84;5092584;28;20043;-83
2023/12/29 00:35:20;;;;;;;27.37;12.57;;;;;;;7.23;80.17;100611.81;5074434;28;20028;-85
2023/12/29 00:37:46;;;;;;;24.13;12.43;;;;;;;7.25;80.35;100606.59;5092843;28;20107;-84
2023/12/29 00:40:11;;;;;;;22.08;12.15;;;;;;;7.27;80.58;100610.13;5092678;28;20064;-83
2023/12/29 00:42:37;;;;;;;25.60;12.40;;;;;;;7.29;80.21;100605.78;5092715;28;20034;-83
2023/12/29 00:45:03;;;;;;;25.90;11.93;;;;;;;7.29;80.00;100605.78;5092108;28;20032;-82
2023/12/29 00:47:28;;;;;;;23.27;11.85;;;;;;;7.28;80.45;100601.41;5091868;28;20064;-84
2023/12/29 00:49:53;;;;;;;22.07;12.07;;;;;;;7.28;80.13;100601.41;5092395;28;20562;-84
2023/12/29 00:52:19;;;;;;;24.60;12.97;;;;;;;7.26;79.98;100596.16;5092482;28;20030;-84
2023/12/29 00:54:44;;;;;;;22.13;11.93;;;;;;;7.25;79.95;100593.50;5092244;28;20031;-82
2023/12/29 00:57:10;;;;;;;21.50;11.73;;;;;;;7.23;80.35;100606.56;5092137;28;20028;-85
2023/12/29 00:59:39;;;;;;;23.23;11.80;;;;;;;7.22;79.70;100599.56;5092188;28;20062;-83
2023/12/29 01:02:05;;;;;;;22.90;11.80;;;;;;;7.21;80.18;100602.19;5092213;28;20013;-84
2023/12/29 01:04:30;;;;;;;24.57;12.43;;;;;;;7.18;79.67;100611.75;5092333;28;20411;-84
2023/12/29 01:06:55;;;;;;;21.83;12.53;;;;;;;7.14;79.79;100612.56;5092247;28;20020;-83
2023/12/29 01:09:21;;;;;;;25.33;12.97;;;;;;;7.10;79.72;100615.97;5092527;28;20054;-84
2023/12/29 01:11:46;;;;;;;22.70;11.93;;;;;;;7.06;79.79;100616.78;5091772;28;20353;-84
2023/12/29 01:14:12;;;;;;;24.67;12.10;;;;;;;7.03;80.25;100621.97;5091699;28;20085;-82
2023/12/29 01:16:37;;;;;;;22.33;12.03;;;;;;;7.01;79.69;100623.69;5092033;28;20105;-83
2023/12/29 01:19:04;;;;;;;22.80;11.70;;;;;;;6.98;79.81;100616.66;5092192;28;20544;-83
2023/12/29 01:21:33;;;;;;;21.38;11.93;;;;;;;6.97;80.30;100617.50;5086525;28;20394;-82
2023/12/29 01:23:59;;;;;;;23.27;11.97;;;;;;;6.95;80.19;100627.09;5110805;28;20059;-82
2023/12/29 01:26:24;;;;;;;24.85;12.27;;;;;;;6.92;79.68;100619.19;5073765;28;20385;-84
2023/12/29 01:28:50;;;;;;;22.23;12.07;;;;;;;6.87;79.83;100621.75;5091371;28;20148;-83
2023/12/29 01:31:15;;;;;;;20.73;11.23;;;;;;;6.82;79.82;100625.13;5091664;28;20054;-84
2023/12/29 01:33:41;;;;;;;22.92;11.68;;;;;;;6.79;79.66;100625.94;5073403;28;20026;-84
2023/12/29 01:36:06;;;;;;;20.97;11.90;;;;;;;6.78;80.53;100628.56;5073209;28;20104;-82
2023/12/29 01:38:32;;;;;;;21.33;12.07;;;;;;;6.74;80.60;100628.47;5073593;28;20495;-83
2023/12/29 01:40:57;;;;;;;23.23;11.17;;;;;;;6.73;80.51;100626.72;5073379;28;20577;-82
2023/12/29 01:43:22;;;;;;;20.63;11.50;;;;;;;6.72;80.15;100621.47;5091548;28;20103;-83
2023/12/29 01:45:48;;;;;;;21.67;11.23;;;;;;;6.73;80.36;100620.63;5090876;28;20273;-82
2023/12/29 01:48:13;;;;;;;20.23;10.80;;;;;;;6.72;80.07;100618.84;5091468;28;20020;-82
2023/12/29 01:50:40;;;;;;;23.77;11.93;;;;;;;6.73;79.72;100615.38;5091260;28;20115;-85
2023/12/29 01:53:07;;;;;;;23.23;11.50;;;;;;;6.72;80.07;100618.84;5091340;28;20038;-84
2023/12/29 01:55:33;;;;;;;21.70;11.18;;;;;;;6.70;80.26;100618.81;5091109;28;20480;-82
2023/12/29 01:57:58;;;;;;;19.80;10.60;;;;;;;6.69;80.11;100624.03;5090247;28;20114;-82
2023/12/29 02:00:24;;;;;;;21.60;11.20;;;;;;;6.66;79.77;100621.38;5090587;28;20107;-82
2023/12/29 02:02:50;;;;;;;20.02;11.15;;;;;;;6.65;79.93;100617.00;5091428;28;20027;-83
2023/12/29 02:05:17;;;;;;;24.27;12.10;;;;;;;6.62;79.91;100623.03;5090951;28;20165;-81
2023/12/29 02:07:43;;;;;;;23.30;11.07;;;;;;;6.59;80.07;100623.84;5091062;28;20027;-82
2023/12/29 02:10:13;;;;;;;21.50;11.45;;;;;;;6.55;79.90;100629.88;5090556;28;20514;-83
2023/12/29 02:12:39;;;;;;;20.70;11.40;;;;;;;6.53;80.16;100626.38;5090684;28;20035;-83
2023/12/29 02:15:06;;;;;;;19.40;10.20;;;;;;;6.52;80.33;100618.50;5090679;28;20028;-84
2023/12/29 02:17:35;;;;;;;20.58;10.48;;;;;;;6.49;80.39;100619.31;5072654;28;20032;-83
2023/12/29 02:20:01;;;;;;;18.75;10.60;;;;;;;6.48;80.20;100617.56;5091639;28;20483;-84
2023/12/29 02:22:26;;;;;;;18.88;10.55;;;;;;;6.45;79.92;100620.13;5092549;28;20032;-82
2023/12/29 02:24:52;;;;;;;19.33;10.60;;;;;;;6.40;79.82;100621.78;5099026;28;20119;-81
2023/12/29 02:27:54;;;;;;;21.03;11.53;;;;;;;6.36;79.92;100625.16;5072154;28;20031;-82
2023/12/29 02:30:43;;;;;;;19.77;10.38;;;;;;;6.32;79.98;100625.09;5071646;28;20118;-83
2023/12/29 02:33:13;;;;;;;20.70;11.30;;;;;;;6.31;80.17;100617.25;5072128;28;20036;-82
2023/12/29 02:35:42;;;;;;;20.57;10.73;;;;;;;6.29;79.91;100611.09;5090558;28;20281;-84
2023/12/29 02:38:07;;;;;;;21.50;10.98;;;;;;;6.28;80.41;100606.72;5090703;28;20111;-83
2023/12/29 02:40:33;;;;;;;21.10;11.20;;;;;;;6.27;80.10;100597.09;5090508;28;20459;-82
2023/12/29 02:42:58;;;;;;;21.23;10.30;;;;;;;6.26;80.33;100598.84;5090280;28;20395;-82
2023/12/29 02:45:24;;;;;;;22.70;11.60;;;;;;;6.23;80.20;100588.34;5089664;28;20069;-85
2023/12/29 02:47:49;;;;;;;20.92;10.73;;;;;;;6.22;80.66;100581.34;5090069;28;20028;-83
2023/12/29 02:50:15;;;;;;;19.47;10.73;;;;;;;6.21;80.08;100573.44;5089812;28;20047;-83
2023/12/29 02:52:41;;;;;;;21.05;11.65;;;;;;;6.17;79.83;100564.69;5089732;28;20028;-83
2023/12/29 02:55:07;;;;;;;22.27;10.47;;;;;;;6.15;79.84;100567.25;5089860;28;20074;-84
2023/12/29 02:57:32;;;;;;;20.60;10.70;;;;;;;6.14;80.10;100565.50;5090027;28;20069;-82
2023/12/29 02:59:57;;;;;;;21.80;11.80;;;;;;;6.12;80.11;100571.53;5089577;28;20107;-82
2023/12/29 03:02:23;;;;;;;22.13;11.63;;;;;;;6.11;79.67;100570.66;5089801;28;20158;-82
2023/12/29 03:04:49;;;;;;;24.23;12.07;;;;;;;6.11;79.63;100569.78;5089761;28;20388;-82
2023/12/29 03:07:14;;;;;;;23.43;12.03;;;;;;;6.10;80.12;100558.44;5089764;28;20028;-82
2023/12/29 03:09:39;;;;;;;23.13;11.97;;;;;;;6.10;80.09;100554.94;5089280;28;20028;-84
2023/12/29 03:12:06;;;;;;;24.13;12.17;;;;;;;6.08;80.30;100546.19;5089416;28;20059;-83
2023/12/29 03:14:31;;;;;;;23.02;12.20;;;;;;;6.06;80.20;100550.50;5089576;28;20413;-83
2023/12/29 03:16:57;;;;;;;26.13;12.87;;;;;;;6.05;80.49;100546.13;5089346;28;20032;-82
2023/12/29 03:19:22;;;;;;;25.55;13.20;;;;;;;6.02;79.64;100547.84;5089571;28;20032;-83
2023/12/29 03:21:48;;;;;;;25.00;13.33;;;;;;;6.02;79.93;100542.63;5105117;28;20035;-83
2023/12/29 03:24:13;;;;;;;23.40;12.52;;;;;;;6.02;79.71;100534.78;5108455;28;20035;-83
2023/12/29 03:26:39;;;;;;;26.13;12.80;;;;;;;6.03;79.91;100538.28;5076505;28;20181;-83
2023/12/29 03:29:04;;;;;;;23.37;12.40;;;;;;;6.02;79.68;100534.78;5088958;28;20032;-83
2023/12/29 03:31:30;;;;;;;23.03;12.20;;;;;;;6.00;79.86;100531.22;5089719;28;20028;-84
2023/12/29 03:33:55;;;;;;;24.92;13.13;;;;;;;5.98;79.10;100527.69;5089350;28;20088;-83
2023/12/29 03:36:20;;;;;;;24.43;12.30;;;;;;;5.96;79.50;100529.41;5089373;28;20537;-84
2023/12/29 03:38:46;;;;;;;25.90;13.40;;;;;;;5.93;79.16;100526.72;5089588;28;20032;-83
2023/12/29 03:41:11;;;;;;;24.83;12.60;;;;;;;5.92;80.21;100530.19;5089537;28;20099;-82
2023/12/29 03:43:37;;;;;;;24.40;13.23;;;;;;;5.90;79.50;100537.09;5070850;28;20115;-83
2023/12/29 03:46:02;;;;;;;25.03;13.20;;;;;;;5.87;79.50;100526.59;5071488;28;20638;-83
2023/12/29 03:48:28;;;;;;;23.63;13.03;;;;;;;5.84;79.93;100522.22;5089351;28;20510;-82
2023/12/29 03:50:53;;;;;;;25.00;13.10;;;;;;;5.83;80.16;100524.78;5089351;28;20024;-82
2023/12/29 03:53:19;;;;;;;26.90;13.13;;;;;;;5.81;80.12;100518.63;5071036;28;20395;-83
2023/12/29 03:55:44;;;;;;;28.67;12.73;;;;;;;5.81;79.83;100521.25;5089554;28;20446;-82
2023/12/29 03:58:10;;;;;;;23.55;12.63;;;;;;;5.79;79.61;100522.97;5089405;28;20203;-82
2023/12/29 04:00:36;;;;;;;23.47;13.27;;;;;;;5.78;79.80;100523.81;5088935;28;20457;-83
2023/12/29 04:03:01;;;;;;;24.73;13.80;;;;;;;5.78;79.89;100531.66;5089453;28;20099;-84
2023/12/29 04:05:27;;;;;;;25.57;14.07;;;;;;;5.71;79.70;100531.53;5089309;28;20491;-83
2023/12/29 04:07:52;;;;;;;24.33;13.50;;;;;;;5.68;80.22;100531.47;5089405;28;20093;-83
2023/12/29 04:10:17;;;;;;;26.27;14.47;;;;;;;5.69;80.03;100529.72;5089116;28;20059;-83
2023/12/29 04:12:43;;;;;;;28.03;14.17;;;;;;;5.65;79.39;100526.16;5088926;28;20028;-83
2023/12/29 04:15:08;;;;;;;28.42;13.88;;;;;;;5.61;79.79;100521.72;5088424;28;20575;-83
2023/12/29 04:17:34;;;;;;;26.53;14.47;;;;;;;5.57;79.93;100523.41;5089162;28;20025;-83
2023/12/29 04:19:59;;;;;;;27.67;14.47;;;;;;;5.57;79.39;100519.91;5089218;28;20453;-82
2023/12/29 04:22:25;;;;;;;25.40;13.35;;;;;;;5.55;80.20;100526.84;5111413;28;20050;-82
2023/12/29 04:24:50;;;;;;;25.90;13.60;;;;;;;5.51;79.78;100519.78;5111899;28;20039;-82
2023/12/29 04:27:17;;;;;;;27.07;14.37;;;;;;;5.48;80.39;100522.34;5093057;28;20039;-81
2023/12/29 04:29:44;;;;;;;27.83;14.43;;;;;;;5.45;80.22;100521.44;5091994;28;20491;-82
2023/12/29 04:32:09;;;;;;;28.25;14.85;;;;;;;5.41;79.88;100516.97;5092589;28;20036;-82
2023/12/29 04:34:35;;;;;;;26.77;14.03;;;;;;;5.37;80.04;100509.91;5092424;28;20103;-83
2023/12/29 04:37:00;;;;;;;30.13;14.07;;;;;;;5.35;80.59;100503.78;5092918;28;20037;-82
2023/12/29 04:39:25;;;;;;;26.97;14.90;;;;;;;5.32;80.58;100511.56;5092675;28;20506;-82
2023/12/29 04:41:51;;;;;;;28.98;15.10;;;;;;;5.25;80.02;100507.06;5073981;28;20032;-82
2023/12/29 04:44:16;;;;;;;29.30;14.57;;;;;;;5.23;80.95;100514.00;5091976;28;20077;-84
2023/12/29 04:46:42;;;;;;;31.03;15.23;;;;;;;5.21;80.47;100515.69;5092374;28;20080;-85
2023/12/29 04:49:07;;;;;;;29.10;15.03;;;;;;;5.20;80.13;100516.53;5092486;28;20042;-81
2023/12/29 04:51:33;;;;;;;26.73;14.87;;;;;;;5.21;80.73;100513.06;5092144;28;20270;-82
2023/12/29 04:53:58;;;;;;;30.77;14.77;;;;;;;5.18;80.23;100508.66;5092113;28;20464;-81
2023/12/29 04:56:24;;;;;;;27.77;15.60;;;;;;;5.19;80.69;100509.56;5092371;28;20035;-86
2023/12/29 04:58:51;;;;;;;26.08;14.38;;;;;;;5.19;80.81;100509.56;5091898;28;20115;-83
2023/12/29 05:01:17;;;;;;;30.40;16.03;;;;;;;5.15;80.42;100499.00;5092435;28;20061;-84
2023/12/29 05:03:42;;;;;;;26.75;15.02;;;;;;;5.17;80.76;100493.84;5073896;28;20020;-83
2023/12/29 05:06:07;;;;;;;28.93;15.47;;;;;;;5.17;80.36;100494.69;5092498;28;20043;-82
2023/12/29 05:08:33;;;;;;;32.00;16.47;;;;;;;5.17;80.70;100491.22;5091983;28;20541;-82
2023/12/29 05:10:58;;;;;;;32.00;15.40;;;;;;;5.18;80.91;100495.59;5091598;28;20055;-83
2023/12/29 05:13:23;;;;;;;26.63;15.37;;;;;;;5.21;80.21;100497.41;5091761;28;20057;-85
2023/12/29 05:15:49;;;;;;;30.50;15.97;;;;;;;5.20;80.87;100500.88;5091392;28;20298;-84
2023/12/29 05:18:14;;;;;;;32.30;15.90;;;;;;;5.20;80.34;100501.72;5073684;28;20081;-83
2023/12/29 05:20:40;;;;;;;31.97;15.67;;;;;;;5.21;81.16;100497.41;5097753;28;20027;-82
2023/12/29 05:23:05;;;;;;;28.50;14.53;;;;;;;5.22;80.95;100505.25;5112446;28;20027;-83
2023/12/29 05:25:30;;;;;;;32.85;15.43;;;;;;;5.25;80.95;100499.22;5105235;28;20024;-83
2023/12/29 05:27:56;;;;;;;27.93;15.10;;;;;;;5.26;80.56;100501.00;5091544;28;20490;-82
2023/12/29 05:30:21;;;;;;;30.60;15.33;;;;;;;5.27;81.25;100489.69;5091404;28;20169;-85
2023/12/29 05:32:46;;;;;;;27.73;14.87;;;;;;;5.27;80.99;100485.34;5091308;28;20032;-84
2023/12/29 05:35:12;;;;;;;33.37;15.17;;;;;;;5.30;80.68;100492.38;5091703;28;20024;-84
2023/12/29 05:37:37;;;;;;;27.33;14.23;;;;;;;5.33;80.82;100495.03;5091347;28;20166;-82
2023/12/29 05:40:03;;;;;;;27.40;14.03;;;;;;;5.36;81.11;100492.50;5091329;28;20036;-84
2023/12/29 05:42:29;;;;;;;27.50;14.17;;;;;;;5.36;81.08;100487.28;5091552;28;20031;-82
2023/12/29 05:44:55;;;;;;;28.13;14.15;;;;;;;5.36;80.35;100482.03;5090878;28;20024;-84
2023/12/29 05:47:20;;;;;;;26.43;14.30;;;;;;;5.39;81.04;100494.31;5091314;28;20028;-82
2023/12/29 05:49:45;;;;;;;31.77;14.20;;;;;;;5.42;80.22;100487.38;5090971;28;20497;-82
2023/12/29 05:52:11;;;;;;;28.02;13.80;;;;;;;5.45;80.10;100491.81;5091007;28;20496;-83
2023/12/29 05:54:36;;;;;;;24.60;13.70;;;;;;;5.49;79.96;100498.00;5090991;28;20031;-83
2023/12/29 05:57:02;;;;;;;28.20;14.40;;;;;;;5.46;80.02;100499.69;5091073;28;20103;-83
2023/12/29 05:59:27;;;;;;;26.00;13.93;;;;;;;5.43;80.53;100502.25;5090916;28;20024;-85
2023/12/29 06:01:53;;;;;;;29.50;15.27;;;;;;;5.43;80.77;100504.84;5090953;28;20026;-84
2023/12/29 06:04:18;;;;;;;33.47;16.13;;;;;;;5.41;80.53;100503.03;5090829;28;20077;-83
2023/12/29 06:06:44;;;;;;;28.17;14.57;;;;;;;5.36;80.26;100491.63;5072280;28;20035;-83
2023/12/29 06:09:10;;;;;;;31.40;16.40;;;;;;;5.33;80.69;100489.81;5090715;28;20073;-84
2023/12/29 06:11:35;;;;;;;31.93;16.23;;;;;;;5.28;80.46;100491.47;5090414;28;20032;-81
2023/12/29 06:14:01;;;;;;;28.77;16.05;;;;;;;5.23;81.25;100493.09;5090274;28;20020;-83
2023/12/29 06:16:27;;;;;;;29.23;15.40;;;;;;;5.21;80.58;100497.41;5090517;28;20040;-82
2023/12/29 06:18:52;;;;;;;25.95;14.25;;;;;;;5.23;81.49;100490.50;5090765;28;20263;-84
2023/12/29 06:21:18;;;;;;;25.70;14.57;;;;;;;5.27;80.63;100487.09;5102000;28;20039;-82
2023/12/29 06:23:44;;;;;;;29.00;15.15;;;;;;;5.30;81.22;100484.53;5109430;28;20115;-82
2023/12/29 06:26:20;;;;;;;27.97;14.10;;;;;;;5.33;80.88;100484.59;5099704;28;20029;-82
2023/12/29 06:28:46;;;;;;;33.25;15.30;;;;;;;5.35;80.32;100484.66;5089989;28;20047;-82
2023/12/29 06:31:12;;;;;;;24.95;14.88;;;;;;;5.35;80.46;100490.72;5090414;28;20102;-83
2023/12/29 06:33:45;;;;;;;25.35;13.95;;;;;;;5.35;80.04;100492.47;5090105;28;20055;-82
2023/12/29 06:36:10;;;;;;;26.38;13.63;;;;;;;5.34;80.64;100488.97;5090172;28;20081;-82
2023/12/29 06:38:36;;;;;;;27.57;13.07;;;;;;;5.36;80.67;100491.63;5090309;28;20036;-82
2023/12/29 06:41:05;;;;;;;25.70;14.50;;;;;;;5.38;80.22;100490.78;5071976;28;20028;-83
2023/12/29 06:43:30;;;;;;;25.95;12.95;;;;;;;5.41;80.21;100496.06;5071859;28;20028;-84
2023/12/29 06:45:56;;;;;;;28.33;14.37;;;;;;;5.46;80.01;100493.56;5089580;28;20032;-82
2023/12/29 06:48:21;;;;;;;30.33;16.15;;;;;;;5.49;80.36;100498.00;5089877;28;20028;-85
2023/12/29 06:50:47;;;;;;;32.03;14.80;;;;;;;5.51;80.92;100501.50;5090068;28;20475;-85
2023/12/29 06:53:12;;;;;;;24.00;13.13;;;;;;;5.53;80.76;100502.41;5090392;28;20266;-85
2023/12/29 06:55:38;;;;;;;23.90;13.40;;;;;;;5.54;79.74;100509.41;5089980;28;20020;-85
2023/12/29 06:58:04;;;;;;;24.23;12.63;;;;;;;5.54;80.61;100506.78;5089995;28;20089;-83
2023/12/29 07:00:30;;;;;;;25.88;13.73;;;;;;;5.56;79.79;100499.88;5089837;28;20540;-83
2023/12/29 07:02:55;;;;;;;26.63;13.73;;;;;;;5.56;80.72;100499.88;5089793;28;20055;-85
2023/12/29 07:05:21;;;;;;;26.53;14.23;;;;;;;5.56;80.68;100499.88;5089923;28;20027;-83
2023/12/29 07:07:46;;;;;;;27.45;13.43;;;;;;;5.54;81.21;100498.97;5071684;28;20092;-83
2023/12/29 07:10:15;;;;;;;28.70;14.77;;;;;;;5.54;80.90;100504.19;5089784;28;20046;-83
2023/12/29 07:12:41;;;;;;;28.25;14.35;;;;;;;5.51;81.10;100504.13;5089661;28;20024;-84
2023/12/29 07:15:06;;;;;;;25.33;13.90;;;;;;;5.50;81.00;100518.03;5089534;28;20032;-83
2023/12/29 07:17:32;;;;;;;23.00;13.57;;;;;;;5.50;81.38;100512.81;5089992;28;20537;-84
2023/12/29 07:19:57;;;;;;;27.50;14.13;;;;;;;5.52;80.58;100511.09;5089876;28;20420;-83
2023/12/29 07:22:23;;;;;;;27.17;12.63;;;;;;;5.54;81.11;100517.25;5110176;28;20089;-82
2023/12/29 07:24:48;;;;;;;27.37;12.83;;;;;;;5.56;80.72;100523.38;5108719;28;20070;-83
2023/12/29 07:27:13;;;;;;;25.00;13.00;;;;;;;5.58;80.13;100517.34;5089942;28;20064;-82
2023/12/29 07:29:39;;;;;;;22.75;12.60;;;;;;;5.61;80.73;100524.34;5089040;28;20077;-82
2023/12/29 07:32:05;;;;;;;25.20;12.67;;;;;;;5.63;80.37;100516.56;5089448;28;20039;-83
2023/12/29 07:34:31;;;;;;;24.65;12.43;;;;;;;5.64;80.19;100519.19;5071391;28;20028;-82
2023/12/29 07:36:58;;;;;;;28.53;13.13;;;;;;;5.65;80.08;100515.72;5089538;28;20043;-84
2023/12/29 07:39:23;;;;;;;25.60;13.90;;;;;;;5.65;80.27;100520.94;5089664;28;20081;-84
2023/12/29 07:41:50;;;;;;;26.73;14.07;;;;;;;5.63;80.24;100517.41;5071337;28;20111;-82
2023/12/29 07:44:16;;;;;;;28.65;15.45;;;;;;;5.62;80.54;100522.63;5089297;28;20027;-84
2023/12/29 07:46:41;;;;;;;28.43;15.13;;;;;;;5.60;80.64;100517.34;5089979;28;20388;-83
2023/12/29 07:49:07;;;;;;;25.37;13.33;;;;;;;5.64;80.45;100521.78;5089419;28;20373;-82
2023/12/29 07:51:32;;;;;;;26.77;13.73;;;;;;;5.65;80.07;100526.16;5089279;28;20395;-84
2023/12/29 07:53:58;;;;;;;24.73;12.30;;;;;;;5.68;80.57;100526.25;5089371;28;20020;-85
2023/12/29 07:56:23;;;;;;;27.27;12.97;;;;;;;5.69;80.72;100520.19;5090383;28;20028;-83
2023/12/29 07:58:49;;;;;;;26.13;13.83;;;;;;;5.72;80.26;100533.28;5092958;28;20034;-85
2023/12/29 08:01:14;;;;;;;23.37;13.00;;;;;;;5.74;79.85;100531.59;5093608;28;20034;-81
2023/12/29 08:03:39;;;;;;;23.77;13.87;;;;;;;5.77;80.46;100538.59;5093298;28;20058;-84
2023/12/29 08:06:05;;;;;;;28.50;14.30;;;;;;;5.78;80.09;100547.31;5093337;28;20036;-84
2023/12/29 08:08:30;;;;;;;29.53;14.83;;;;;;;5.75;80.30;100548.13;5093198;28;20024;-82
2023/12/29 08:10:56;;;;;;;32.70;14.63;;;;;;;5.74;80.70;100541.16;5075011;28;20032;-82
2023/12/29 08:13:21;;;;;;;33.73;15.27;;;;;;;5.73;80.35;100550.75;5092941;28;20024;-85
2023/12/29 08:15:47;;;;;;;29.98;14.45;;;;;;;5.75;79.73;100554.25;5092532;28;20053;-83
2023/12/29 08:18:13;;;;;;;33.30;15.80;;;;;;;5.78;80.28;100547.31;5093176;28;20034;-83
2023/12/29 08:20:38;;;;;;;28.98;14.20;;;;;;;5.81;80.11;100547.38;5098608;28;20069;-84
2023/12/29 08:23:04;;;;;;;31.93;15.83;;;;;;;5.84;80.06;100555.28;5113058;28;20026;-83
2023/12/29 08:25:29;;;;;;;30.33;16.20;;;;;;;5.85;80.40;100549.19;5106671;28;20082;-83
2023/12/29 08:27:56;;;;;;;32.80;16.42;;;;;;;5.87;80.24;100557.94;5092615;28;20016;-82
2023/12/29 08:30:22;;;;;;;34.13;16.23;;;;;;;5.89;79.49;100556.25;5092156;28;20695;-83
2023/12/29 08:32:47;;;;;;;31.53;15.83;;;;;;;5.91;80.25;100570.25;5092641;28;20261;-82
2023/12/29 08:35:13;;;;;;;27.77;15.07;;;;;;;5.94;79.82;100569.41;5092598;28;20028;-83
2023/12/29 08:37:38;;;;;;;26.77;14.38;;;;;;;5.98;79.45;100577.38;5092682;28;20449;-83
2023/12/29 08:40:04;;;;;;;35.60;14.97;;;;;;;6.02;80.38;100576.59;5074440;28;20071;-83
2023/12/29 08:42:29;;;;;;;25.50;13.48;;;;;;;6.05;79.89;100575.78;5092538;28;20398;-82
2023/12/29 08:44:55;;;;;;;24.43;13.47;;;;;;;6.08;79.88;100575.84;5092303;28;20122;-84
2023/12/29 08:47:20;;;;;;;31.57;15.13;;;;;;;6.12;79.34;100585.50;5092562;28;20016;-82
2023/12/29 08:49:48;;;;;;;32.20;16.80;;;;;;;6.13;79.38;100586.38;5092175;28;20032;-82
2023/12/29 08:52:14;;;;;;;31.58;17.10;;;;;;;6.15;79.73;100597.78;5092388;28;20028;-82
2023/12/29 08:54:39;;;;;;;32.77;16.90;;;;;;;6.19;79.92;100604.81;5091933;28;20031;-83
2023/12/29 08:57:06;;;;;;;31.92;16.75;;;;;;;6.25;79.45;100610.16;5092398;28;20154;-82
2023/12/29 08:59:32;;;;;;;33.80;17.00;;;;;;;6.27;79.56;100618.91;5091850;28;20063;-83
2023/12/29 09:01:57;;;;;;;36.20;17.00;;;;;;;6.30;79.63;100600.66;5092601;28;20055;-83
2023/12/29 09:04:23;;;;;;;26.60;14.83;;;;;;;6.35;79.18;100612.94;5092215;28;20035;-82
2023/12/29 09:06:48;;;;;;;29.83;15.48;;;;;;;6.35;79.12;100589.41;5092083;28;20052;-82
2023/12/29 09:09:14;;;;;;;34.47;16.00;;;;;;;6.30;79.20;100577.13;5073178;28;20035;-84
2023/12/29 09:11:40;;;;;;;30.47;16.07;;;;;;;6.29;79.23;100567.50;5092106;28;20051;-83
2023/12/29 09:14:05;;;;;;;29.60;15.18;;;;;;;6.29;79.63;100559.66;5091456;28;20012;-85
2023/12/29 09:16:31;;;;;;;33.83;16.50;;;;;;;6.29;79.84;100562.28;5091916;28;20469;-86
2023/12/29 09:18:56;;;;;;;32.08;15.80;;;;;;;6.32;79.67;100575.41;5073641;28;20024;-84
2023/12/29 09:21:21;;;;;;;25.60;13.80;;;;;;;6.36;80.02;100591.16;5103803;28;20028;-83
2023/12/29 09:23:47;;;;;;;27.20;13.57;;;;;;;6.42;80.08;100599.16;5098687;28;20036;-82
2023/12/29 09:26:13;;;;;;;23.23;13.27;;;;;;;6.47;80.02;100589.63;5082216;28;20251;-85
2023/12/29 09:28:42;;;;;;;25.58;13.63;;;;;;;6.53;79.71;100601.94;5073154;28;20097;-85
2023/12/29 09:31:07;;;;;;;23.17;13.02;;;;;;;6.58;80.06;100602.91;5091853;28;20076;-82
2023/12/29 09:33:33;;;;;;;26.53;13.40;;;;;;;6.65;79.75;100606.53;5091646;28;20031;-85
2023/12/29 09:35:58;;;;;;;24.87;13.47;;;;;;;6.71;79.62;100612.72;5073342;28;20058;-83
2023/12/29 09:38:24;;;;;;;25.33;13.67;;;;;;;6.78;79.67;100624.19;5091638;28;20023;-85
2023/12/29 09:40:50;;;;;;;26.10;13.60;;;;;;;6.85;79.03;100619.94;5091757;28;20020;-85
2023/12/29 09:43:16;;;;;;;28.15;14.82;;;;;;;6.93;79.86;100622.69;5091642;28;20031;-84
2023/12/29 09:45:45;;;;;;;30.17;15.52;;;;;;;7.00;79.17;100630.69;5091246;28;20020;-83
2023/12/29 09:48:13;;;;;;;30.07;15.47;;;;;;;7.09;79.33;100627.31;5091271;28;20020;-83
2023/12/29 09:50:39;;;;;;;29.13;16.08;;;;;;;7.14;79.06;100612.56;5091195;28;20085;-86
2023/12/29 09:53:06;;;;;;;28.17;14.38;;;;;;;7.17;78.65;100620.47;5091083;28;20038;-85
2023/12/29 09:55:33;;;;;;;27.85;13.77;;;;;;;7.18;79.00;100624.84;5091199;28;20513;-87
2023/12/29 09:58:00;;;;;;;28.40;15.18;;;;;;;7.24;79.22;100626.69;5091463;28;20064;-86
2023/12/29 10:00:26;;;;;;;27.80;14.27;;;;;;;7.31;79.16;100618.06;5090862;28;20048;-84
2023/12/29 10:02:53;;;;;;;28.60;14.48;;;;;;;7.38;78.81;100610.28;5091063;28;20021;-85
2023/12/29 10:05:18;;;;;;;31.63;14.65;;;;;;;7.44;78.67;100616.50;5090849;28;20028;-84
2023/12/29 10:07:46;;;;;;;27.50;14.27;;;;;;;7.53;78.47;100612.25;5090940;28;20028;-85
2023/12/29 10:10:18;;;;;;;26.40;13.25;;;;;;;7.60;78.92;100617.59;5090806;28;20032;-86
2023/12/29 10:12:47;;;;;;;32.22;16.58;;;;;;;7.66;78.66;100621.16;5090675;28;20081;-85
2023/12/29 10:15:19;;;;;;;35.08;16.65;;;;;;;7.69;78.60;100616.84;5090481;28;20020;-82
2023/12/29 10:18:08;;;;;;;31.80;16.38;;;;;;;7.69;78.53;100618.56;5090675;28;20036;-85
2023/12/29 10:21:06;;;;;;;29.87;15.50;;;;;;;7.71;78.34;100620.34;5076685;28;20023;-84
2023/12/29 10:23:38;;;;;;;30.95;14.88;;;;;;;7.72;78.52;100621.25;5092408;28;20107;-86
2023/12/29 10:26:05;;;;;;;22.98;13.63;;;;;;;7.72;78.81;100611.63;5100318;28;20472;-84
2023/12/29 10:28:32;;;;;;;31.33;15.38;;;;;;;7.75;79.02;100613.44;5072499;28;20117;-84
2023/12/29 10:30:58;;;;;;;28.83;14.07;;;;;;;7.78;78.93;100616.09;5090452;28;20039;-85
2023/12/29 10:33:26;;;;;;;26.47;13.70;;;;;;;7.82;78.71;100617.88;5090354;28;20437;-82
2023/12/29 10:36:02;;;;;;;24.15;12.85;;;;;;;7.86;78.57;100618.81;5090303;28;20141;-83
2023/12/29 10:38:28;;;;;;;25.00;12.80;;;;;;;7.86;78.80;100613.56;5090286;28;20040;-84
2023/12/29 10:40:53;;;;;;;24.00;13.00;;;;;;;7.86;78.75;100610.94;5072076;28;20062;-83
2023/12/29 10:43:24;;;;;;;23.23;13.17;;;;;;;7.87;78.83;100621.44;5090519;28;20270;-83
2023/12/29 10:46:06;;;;;;;25.65;13.38;;;;;;;7.91;78.41;100619.75;5089842;28;20115;-83
2023/12/29 10:48:31;;;;;;;26.40;14.00;;;;;;;7.94;78.76;100629.38;5089965;28;20040;-84
2023/12/29 10:50:57;;;;;;;24.60;14.38;;;;;;;7.97;79.12;100617.19;5090237;28;20027;-85
2023/12/29 10:53:23;;;;;;;28.40;14.67;;;;;;;8.00;78.65;100609.34;5090137;28;20368;-83
2023/12/29 10:55:48;;;;;;;25.35;14.07;;;;;;;8.03;78.69;100613.78;5071882;28;20020;-83
2023/12/29 10:58:17;;;;;;;28.67;14.50;;;;;;;8.08;78.92;100608.56;5090155;28;20028;-84
2023/12/29 11:00:42;;;;;;;28.90;15.60;;;;;;;8.14;78.94;100606.03;5089865;28;20024;-85
2023/12/29 11:03:07;;;;;;;26.80;14.13;;;;;;;8.16;78.62;100596.44;5090035;28;20505;-84
2023/12/29 11:05:33;;;;;;;28.90;15.53;;;;;;;8.21;78.84;100596.50;5090015;28;20102;-85
2023/12/29 11:07:59;;;;;;;48.30;21.50;;;;;;;8.26;78.97;100593.03;5090026;28;20601;-81
2023/12/29 11:10:25;;;;;;;39.67;20.03;;;;;;;8.30;78.71;100581.69;5071573;28;20119;-85
2023/12/29 11:12:52;;;;;;;33.38;16.77;;;;;;;8.36;78.72;100574.78;5089849;28;20028;-82